sensor_id;sensor_type;location;lat;lon;timestamp;temperature;humidity
20862;DHT22;10591;52.532;13.348;2023-05-10T00:01:33;12.48;57.70
20862;DHT22;10591;52.532;13.348;2023-05-10T00:04:04;12.52;57.64
20862;DHT22;10591;52.532;13.348;2023-05-10T00:06:34;12.49;57.76
20862;DHT22;10591;52.532;13.348;2023-05-10T00:09:05;12.46;57.81
20862;DHT22;10591;52.532;13.348;2023-05-10T00:11:36;12.49;57.70
20862;DHT22;10591;52.532;13.348;2023-05-10T00:14:07;12.44;57.93
20862;DHT22;10591;52.532;13.348;2023-05-10T00:16:37;12.38;58.06
20862;DHT22;10591;52.532;13.348;2023-05-10T00:19:10;12.39;58.21
20862;DHT22;10591;52.532;13.348;2023-05-10T00:21:40;12.45;58.02
20862;DHT22;10591;52.532;13.348;2023-05-10T00:24:11;12.43;57.92
20862;DHT22;10591;52.532;13.348;2023-05-10T00:26:42;12.40;58.12
20862;DHT22;10591;52.532;13.348;2023-05-10T00:29:12;12.42;57.95
20862;DHT22;10591;52.532;13.348;2023-05-10T00:31:44;12.46;57.73
20862;DHT22;10591;52.532;13.348;2023-05-10T00:34:15;12.41;58.01
20862;DHT22;10591;52.532;13.348;2023-05-10T00:36:45;12.35;58.12
20862;DHT22;10591;52.532;13.348;2023-05-10T00:39:17;12.32;58.32
20862;DHT22;10591;52.532;13.348;2023-05-10T00:41:48;12.28;58.43
20862;DHT22;10591;52.532;13.348;2023-05-10T00:44:18;12.22;58.62
20862;DHT22;10591;52.532;13.348;2023-05-10T00:46:50;12.11;58.96
20862;DHT22;10591;52.532;13.348;2023-05-10T00:49:21;12.10;58.87
20862;DHT22;10591;52.532;13.348;2023-05-10T00:51:52;12.01;59.15
20862;DHT22;10591;52.532;13.348;2023-05-10T00:54:23;11.88;59.57
20862;DHT22;10591;52.532;13.348;2023-05-10T00:56:53;11.84;59.70
20862;DHT22;10591;52.532;13.348;2023-05-10T00:59:26;11.87;59.39
20862;DHT22;10591;52.532;13.348;2023-05-10T01:01:58;11.78;59.78
20862;DHT22;10591;52.532;13.348;2023-05-10T01:04:29;11.76;59.92
20862;DHT22;10591;52.532;13.348;2023-05-10T01:07:00;11.71;60.03
20862;DHT22;10591;52.532;13.348;2023-05-10T01:09:31;11.67;60.16
20862;DHT22;10591;52.532;13.348;2023-05-10T01:12:03;11.62;60.33
20862;DHT22;10591;52.532;13.348;2023-05-10T01:14:36;11.59;60.42
20862;DHT22;10591;52.532;13.348;2023-05-10T01:17:07;11.58;60.38
20862;DHT22;10591;52.532;13.348;2023-05-10T01:19:39;11.49;60.57
20862;DHT22;10591;52.532;13.348;2023-05-10T01:22:42;11.44;60.73
20862;DHT22;10591;52.532;13.348;2023-05-10T01:28:28;11.35;61.12
20862;DHT22;10591;52.532;13.348;2023-05-10T01:33:56;11.30;61.43
20862;DHT22;10591;52.532;13.348;2023-05-10T01:36:42;11.35;61.38
20862;DHT22;10591;52.532;13.348;2023-05-10T01:41:56;11.18;61.84
20862;DHT22;10591;52.532;13.348;2023-05-10T01:44:34;11.09;62.11
20862;DHT22;10591;52.532;13.348;2023-05-10T01:49:43;11.03;62.27
20862;DHT22;10591;52.532;13.348;2023-05-10T01:52:16;11.08;62.28
20862;DHT22;10591;52.532;13.348;2023-05-10T01:55:01;10.94;62.68
20862;DHT22;10591;52.532;13.348;2023-05-10T01:57:33;10.90;62.76
20862;DHT22;10591;52.532;13.348;2023-05-10T02:00:07;10.88;63.04
20862;DHT22;10591;52.532;13.348;2023-05-10T02:02:44;10.80;63.19
20862;DHT22;10591;52.532;13.348;2023-05-10T02:05:14;10.82;63.25
20862;DHT22;10591;52.532;13.348;2023-05-10T02:07:45;10.76;63.36
20862;DHT22;10591;52.532;13.348;2023-05-10T02:10:17;10.73;63.57
20862;DHT22;10591;52.532;13.348;2023-05-10T02:12:49;10.68;63.65
20862;DHT22;10591;52.532;13.348;2023-05-10T02:15:23;10.60;63.97
20862;DHT22;10591;52.532;13.348;2023-05-10T02:17:55;10.71;63.69
20862;DHT22;10591;52.532;13.348;2023-05-10T02:20:27;10.64;63.89
20862;DHT22;10591;52.532;13.348;2023-05-10T02:22:59;10.58;64.08
20862;DHT22;10591;52.532;13.348;2023-05-10T02:25:32;10.56;64.25
20862;DHT22;10591;52.532;13.348;2023-05-10T02:28:06;10.55;64.19
20862;DHT22;10591;52.532;13.348;2023-05-10T02:30:37;10.58;64.20
20862;DHT22;10591;52.532;13.348;2023-05-10T02:33:08;10.51;64.44
20862;DHT22;10591;52.532;13.348;2023-05-10T02:35:39;10.49;64.40
20862;DHT22;10591;52.532;13.348;2023-05-10T02:38:11;10.48;64.40
20862;DHT22;10591;52.532;13.348;2023-05-10T02:40:45;10.58;64.14
20862;DHT22;10591;52.532;13.348;2023-05-10T02:43:17;10.50;64.38
20862;DHT22;10591;52.532;13.348;2023-05-10T02:45:49;10.52;64.27
20862;DHT22;10591;52.532;13.348;2023-05-10T02:48:20;10.56;64.25
20862;DHT22;10591;52.532;13.348;2023-05-10T02:50:52;10.46;64.51
20862;DHT22;10591;52.532;13.348;2023-05-10T02:53:35;10.43;64.67
20862;DHT22;10591;52.532;13.348;2023-05-10T02:56:04;10.39;64.77
20862;DHT22;10591;52.532;13.348;2023-05-10T02:58:35;10.36;64.88
20862;DHT22;10591;52.532;13.348;2023-05-10T03:01:07;10.36;64.74
20862;DHT22;10591;52.532;13.348;2023-05-10T03:03:38;10.34;64.71
20862;DHT22;10591;52.532;13.348;2023-05-10T03:06:09;10.40;64.58
20862;DHT22;10591;52.532;13.348;2023-05-10T03:08:40;10.30;64.73
20862;DHT22;10591;52.532;13.348;2023-05-10T03:14:12;10.23;64.94
20862;DHT22;10591;52.532;13.348;2023-05-10T03:16:47;10.21;64.97
20862;DHT22;10591;52.532;13.348;2023-05-10T03:19:48;10.15;65.18
20862;DHT22;10591;52.532;13.348;2023-05-10T03:22:37;10.18;65.07
20862;DHT22;10591;52.532;13.348;2023-05-10T03:25:10;10.16;65.40
20862;DHT22;10591;52.532;13.348;2023-05-10T03:27:43;10.06;65.55
20862;DHT22;10591;52.532;13.348;2023-05-10T03:30:14;10.13;65.34
20862;DHT22;10591;52.532;13.348;2023-05-10T03:32:46;10.12;65.26
20862;DHT22;10591;52.532;13.348;2023-05-10T03:35:17;10.10;65.42
20862;DHT22;10591;52.532;13.348;2023-05-10T03:37:47;10.08;65.42
20862;DHT22;10591;52.532;13.348;2023-05-10T03:40:19;10.12;65.20
20862;DHT22;10591;52.532;13.348;2023-05-10T03:42:50;10.15;65.18
20862;DHT22;10591;52.532;13.348;2023-05-10T03:45:21;10.16;65.18
20862;DHT22;10591;52.532;13.348;2023-05-10T03:47:53;10.16;65.15
20862;DHT22;10591;52.532;13.348;2023-05-10T03:50:26;10.15;65.12
20862;DHT22;10591;52.532;13.348;2023-05-10T03:52:57;10.15;65.09
20862;DHT22;10591;52.532;13.348;2023-05-10T03:55:27;10.12;65.11
20862;DHT22;10591;52.532;13.348;2023-05-10T03:57:59;10.15;64.93
20862;DHT22;10591;52.532;13.348;2023-05-10T04:00:29;10.11;65.05
20862;DHT22;10591;52.532;13.348;2023-05-10T04:03:01;10.10;65.01
20862;DHT22;10591;52.532;13.348;2023-05-10T04:05:32;10.21;64.88
20862;DHT22;10591;52.532;13.348;2023-05-10T04:08:03;10.20;64.69
20862;DHT22;10591;52.532;13.348;2023-05-10T04:10:33;10.22;64.61
20862;DHT22;10591;52.532;13.348;2023-05-10T04:13:04;10.29;64.56
20862;DHT22;10591;52.532;13.348;2023-05-10T04:15:35;10.37;64.30
20862;DHT22;10591;52.532;13.348;2023-05-10T04:18:07;10.34;64.21
20862;DHT22;10591;52.532;13.348;2023-05-10T04:20:37;10.38;64.05
20862;DHT22;10591;52.532;13.348;2023-05-10T04:23:10;10.40;63.97
20862;DHT22;10591;52.532;13.348;2023-05-10T04:25:41;10.46;63.75
20862;DHT22;10591;52.532;13.348;2023-05-10T04:28:12;10.50;63.73
20862;DHT22;10591;52.532;13.348;2023-05-10T04:30:43;10.54;63.59
20862;DHT22;10591;52.532;13.348;2023-05-10T04:33:15;10.62;63.27
20862;DHT22;10591;52.532;13.348;2023-05-10T04:35:45;10.60;63.30
20862;DHT22;10591;52.532;13.348;2023-05-10T04:38:16;10.60;63.30
20862;DHT22;10591;52.532;13.348;2023-05-10T04:40:47;10.62;63.16
20862;DHT22;10591;52.532;13.348;2023-05-10T04:43:18;10.71;63.12
20862;DHT22;10591;52.532;13.348;2023-05-10T04:45:51;10.75;62.79
20862;DHT22;10591;52.532;13.348;2023-05-10T04:48:21;10.82;62.44
20862;DHT22;10591;52.532;13.348;2023-05-10T04:50:52;10.84;62.38
20862;DHT22;10591;52.532;13.348;2023-05-10T04:53:24;10.98;62.34
20862;DHT22;10591;52.532;13.348;2023-05-10T04:55:57;11.19;61.75
20862;DHT22;10591;52.532;13.348;2023-05-10T04:58:28;12.12;59.14
20862;DHT22;10591;52.532;13.348;2023-05-10T05:01:07;13.78;54.83
20862;DHT22;10591;52.532;13.348;2023-05-10T05:03:40;14.32;52.90
20862;DHT22;10591;52.532;13.348;2023-05-10T05:06:13;14.20;52.52
20862;DHT22;10591;52.532;13.348;2023-05-10T05:08:43;14.31;52.50
20862;DHT22;10591;52.532;13.348;2023-05-10T05:11:14;14.30;52.16
20862;DHT22;10591;52.532;13.348;2023-05-10T05:13:44;14.92;51.10
20862;DHT22;10591;52.532;13.348;2023-05-10T05:16:16;14.52;51.82
20862;DHT22;10591;52.532;13.348;2023-05-10T05:18:47;14.90;50.92
20862;DHT22;10591;52.532;13.348;2023-05-10T05:21:19;15.75;49.38
20862;DHT22;10591;52.532;13.348;2023-05-10T05:23:51;15.28;49.88
20862;DHT22;10591;52.532;13.348;2023-05-10T05:26:24;15.56;49.14
20862;DHT22;10591;52.532;13.348;2023-05-10T05:28:54;14.94;50.80
20862;DHT22;10591;52.532;13.348;2023-05-10T05:31:25;14.46;51.69
20862;DHT22;10591;52.532;13.348;2023-05-10T05:33:58;15.46;50.34
20862;DHT22;10591;52.532;13.348;2023-05-10T05:36:28;15.76;48.72
20862;DHT22;10591;52.532;13.348;2023-05-10T05:39:02;16.11;48.04
20862;DHT22;10591;52.532;13.348;2023-05-10T05:41:35;16.24;47.74
20862;DHT22;10591;52.532;13.348;2023-05-10T05:44:07;16.58;46.38
20862;DHT22;10591;52.532;13.348;2023-05-10T05:46:39;16.24;47.54
20862;DHT22;10591;52.532;13.348;2023-05-10T05:49:10;16.93;46.72
20862;DHT22;10591;52.532;13.348;2023-05-10T05:51:41;17.43;44.77
20862;DHT22;10591;52.532;13.348;2023-05-10T05:54:12;17.70;44.45
20862;DHT22;10591;52.532;13.348;2023-05-10T05:56:43;17.22;45.46
20862;DHT22;10591;52.532;13.348;2023-05-10T05:59:15;17.25;45.59
20862;DHT22;10591;52.532;13.348;2023-05-10T06:01:45;16.07;47.40
20862;DHT22;10591;52.532;13.348;2023-05-10T06:04:17;16.87;46.74
20862;DHT22;10591;52.532;13.348;2023-05-10T06:06:48;18.10;44.61
20862;DHT22;10591;52.532;13.348;2023-05-10T06:09:22;18.68;42.68
20862;DHT22;10591;52.532;13.348;2023-05-10T06:11:54;19.57;41.22
20862;DHT22;10591;52.532;13.348;2023-05-10T06:14:26;18.18;42.81
20862;DHT22;10591;52.532;13.348;2023-05-10T06:16:57;18.10;43.36
20862;DHT22;10591;52.532;13.348;2023-05-10T06:19:31;18.62;42.54
20862;DHT22;10591;52.532;13.348;2023-05-10T06:22:01;17.95;44.16
20862;DHT22;10591;52.532;13.348;2023-05-10T06:24:32;17.03;46.66
20862;DHT22;10591;52.532;13.348;2023-05-10T06:27:03;17.59;45.31
20862;DHT22;10591;52.532;13.348;2023-05-10T06:29:38;18.15;44.02
20862;DHT22;10591;52.532;13.348;2023-05-10T06:32:08;18.00;44.20
20862;DHT22;10591;52.532;13.348;2023-05-10T06:34:40;17.13;46.03
20862;DHT22;10591;52.532;13.348;2023-05-10T06:37:13;18.98;42.98
20862;DHT22;10591;52.532;13.348;2023-05-10T06:39:43;18.05;43.97
20862;DHT22;10591;52.532;13.348;2023-05-10T06:42:14;16.47;47.51
20862;DHT22;10591;52.532;13.348;2023-05-10T06:44:45;15.75;49.82
20862;DHT22;10591;52.532;13.348;2023-05-10T06:47:16;15.22;51.11
20862;DHT22;10591;52.532;13.348;2023-05-10T06:49:47;15.26;51.33
20862;DHT22;10591;52.532;13.348;2023-05-10T06:52:18;15.20;51.58
20862;DHT22;10591;52.532;13.348;2023-05-10T06:54:49;15.00;52.14
20862;DHT22;10591;52.532;13.348;2023-05-10T06:57:19;15.27;51.70
20862;DHT22;10591;52.532;13.348;2023-05-10T06:59:53;15.23;52.04
20862;DHT22;10591;52.532;13.348;2023-05-10T07:02:25;15.04;52.26
20862;DHT22;10591;52.532;13.348;2023-05-10T07:04:58;15.20;51.98
20862;DHT22;10591;52.532;13.348;2023-05-10T07:07:30;14.99;52.44
20862;DHT22;10591;52.532;13.348;2023-05-10T07:10:02;15.34;52.00
20862;DHT22;10591;52.532;13.348;2023-05-10T07:12:33;15.38;51.76
20862;DHT22;10591;52.532;13.348;2023-05-10T07:15:07;15.52;51.77
20862;DHT22;10591;52.532;13.348;2023-05-10T07:17:38;15.56;51.59
20862;DHT22;10591;52.532;13.348;2023-05-10T07:20:11;15.58;51.19
20862;DHT22;10591;52.532;13.348;2023-05-10T07:22:41;15.68;51.11
20862;DHT22;10591;52.532;13.348;2023-05-10T07:25:14;15.72;51.02
20862;DHT22;10591;52.532;13.348;2023-05-10T07:27:45;15.74;51.18
20862;DHT22;10591;52.532;13.348;2023-05-10T07:30:19;15.91;50.46
20862;DHT22;10591;52.532;13.348;2023-05-10T07:32:49;15.78;50.57
20862;DHT22;10591;52.532;13.348;2023-05-10T07:35:20;15.73;51.00
20862;DHT22;10591;52.532;13.348;2023-05-10T07:37:50;15.77;51.13
20862;DHT22;10591;52.532;13.348;2023-05-10T07:40:21;15.78;51.35
20862;DHT22;10591;52.532;13.348;2023-05-10T07:42:54;15.81;51.29
20862;DHT22;10591;52.532;13.348;2023-05-10T07:45:24;15.97;50.97
20862;DHT22;10591;52.532;13.348;2023-05-10T07:47:57;16.26;50.32
20862;DHT22;10591;52.532;13.348;2023-05-10T07:50:28;16.08;50.48
20862;DHT22;10591;52.532;13.348;2023-05-10T07:53:00;16.11;50.74
20862;DHT22;10591;52.532;13.348;2023-05-10T07:55:31;16.35;50.45
20862;DHT22;10591;52.532;13.348;2023-05-10T07:58:01;16.31;49.98
20862;DHT22;10591;52.532;13.348;2023-05-10T08:00:32;16.14;50.52
20862;DHT22;10591;52.532;13.348;2023-05-10T08:03:03;16.32;50.17
20862;DHT22;10591;52.532;13.348;2023-05-10T08:05:34;16.18;50.09
20862;DHT22;10591;52.532;13.348;2023-05-10T08:08:04;16.31;50.01
20862;DHT22;10591;52.532;13.348;2023-05-10T08:10:35;16.64;49.90
20862;DHT22;10591;52.532;13.348;2023-05-10T08:13:06;16.82;49.95
20862;DHT22;10591;52.532;13.348;2023-05-10T08:15:37;16.70;49.50
20862;DHT22;10591;52.532;13.348;2023-05-10T08:18:13;16.83;49.01
20862;DHT22;10591;52.532;13.348;2023-05-10T08:20:41;16.72;49.34
20862;DHT22;10591;52.532;13.348;2023-05-10T08:23:15;16.68;49.18
20862;DHT22;10591;52.532;13.348;2023-05-10T08:25:46;16.68;49.56
20862;DHT22;10591;52.532;13.348;2023-05-10T08:28:16;16.88;49.31
20862;DHT22;10591;52.532;13.348;2023-05-10T08:30:47;16.92;48.99
20862;DHT22;10591;52.532;13.348;2023-05-10T08:33:19;16.88;48.74
20862;DHT22;10591;52.532;13.348;2023-05-10T08:35:50;16.86;49.05
20862;DHT22;10591;52.532;13.348;2023-05-10T08:38:21;17.14;48.74
20862;DHT22;10591;52.532;13.348;2023-05-10T08:40:54;17.24;48.56
20862;DHT22;10591;52.532;13.348;2023-05-10T08:43:29;17.24;48.15
20862;DHT22;10591;52.532;13.348;2023-05-10T08:46:04;17.37;48.17
20862;DHT22;10591;52.532;13.348;2023-05-10T08:48:36;17.45;47.64
20862;DHT22;10591;52.532;13.348;2023-05-10T08:51:08;17.40;47.82
20862;DHT22;10591;52.532;13.348;2023-05-10T08:53:40;17.17;48.36
20862;DHT22;10591;52.532;13.348;2023-05-10T08:56:12;17.40;48.14
20862;DHT22;10591;52.532;13.348;2023-05-10T08:58:44;17.70;47.51
20862;DHT22;10591;52.532;13.348;2023-05-10T09:01:17;17.78;46.82
20862;DHT22;10591;52.532;13.348;2023-05-10T09:03:49;17.90;47.02
20862;DHT22;10591;52.532;13.348;2023-05-10T09:06:23;17.98;46.62
20862;DHT22;10591;52.532;13.348;2023-05-10T09:08:54;18.04;46.94
20862;DHT22;10591;52.532;13.348;2023-05-10T09:11:25;18.19;46.35
20862;DHT22;10591;52.532;13.348;2023-05-10T09:13:58;18.29;46.36
20862;DHT22;10591;52.532;13.348;2023-05-10T09:16:31;18.42;46.22
20862;DHT22;10591;52.532;13.348;2023-05-10T09:19:01;18.49;46.13
20862;DHT22;10591;52.532;13.348;2023-05-10T09:21:35;18.12;46.18
20862;DHT22;10591;52.532;13.348;2023-05-10T09:24:11;18.23;46.45
20862;DHT22;10591;52.532;13.348;2023-05-10T09:26:47;18.23;46.58
20862;DHT22;10591;52.532;13.348;2023-05-10T09:29:18;18.34;46.53
20862;DHT22;10591;52.532;13.348;2023-05-10T09:31:50;18.36;46.28
20862;DHT22;10591;52.532;13.348;2023-05-10T09:34:30;18.11;46.66
20862;DHT22;10591;52.532;13.348;2023-05-10T09:37:02;18.46;46.64
20862;DHT22;10591;52.532;13.348;2023-05-10T09:39:37;18.52;46.17
20862;DHT22;10591;52.532;13.348;2023-05-10T09:42:09;18.60;45.92
20862;DHT22;10591;52.532;13.348;2023-05-10T09:44:40;18.70;45.74
20862;DHT22;10591;52.532;13.348;2023-05-10T09:47:17;18.55;45.79
20862;DHT22;10591;52.532;13.348;2023-05-10T09:49:52;18.63;45.86
20862;DHT22;10591;52.532;13.348;2023-05-10T09:52:24;18.85;45.82
20862;DHT22;10591;52.532;13.348;2023-05-10T09:54:55;18.94;45.32
20862;DHT22;10591;52.532;13.348;2023-05-10T09:57:26;19.12;45.08
20862;DHT22;10591;52.532;13.348;2023-05-10T09:59:56;19.22;44.79
20862;DHT22;10591;52.532;13.348;2023-05-10T10:02:29;19.16;45.18
20862;DHT22;10591;52.532;13.348;2023-05-10T10:05:03;18.82;46.04
20862;DHT22;10591;52.532;13.348;2023-05-10T10:07:34;18.82;46.14
20862;DHT22;10591;52.532;13.348;2023-05-10T10:10:07;18.86;45.85
20862;DHT22;10591;52.532;13.348;2023-05-10T10:12:41;18.97;45.45
20862;DHT22;10591;52.532;13.348;2023-05-10T10:15:12;18.56;45.53
20862;DHT22;10591;52.532;13.348;2023-05-10T10:17:45;18.92;45.44
20862;DHT22;10591;52.532;13.348;2023-05-10T10:20:17;19.12;44.98
20862;DHT22;10591;52.532;13.348;2023-05-10T10:22:49;19.12;45.34
20862;DHT22;10591;52.532;13.348;2023-05-10T10:25:20;19.24;45.38
20862;DHT22;10591;52.532;13.348;2023-05-10T10:30:31;19.66;44.49
20862;DHT22;10591;52.532;13.348;2023-05-10T10:35:50;19.66;43.02
20862;DHT22;10591;52.532;13.348;2023-05-10T10:38:21;19.78;43.00
20862;DHT22;10591;52.532;13.348;2023-05-10T10:41:26;19.85;43.07
20862;DHT22;10591;52.532;13.348;2023-05-10T10:43:43;19.82;43.49
20862;DHT22;10591;52.532;13.348;2023-05-10T10:46:18;19.84;43.66
20862;DHT22;10591;52.532;13.348;2023-05-10T10:49:10;20.18;43.67
20862;DHT22;10591;52.532;13.348;2023-05-10T10:52:12;20.07;43.26
20862;DHT22;10591;52.532;13.348;2023-05-10T10:54:18;20.11;42.84
20862;DHT22;10591;52.532;13.348;2023-05-10T10:57:10;20.19;43.05
20862;DHT22;10591;52.532;13.348;2023-05-10T10:59:28;20.04;42.64
20862;DHT22;10591;52.532;13.348;2023-05-10T11:01:58;20.09;42.71
20862;DHT22;10591;52.532;13.348;2023-05-10T11:04:40;20.08;42.63
20862;DHT22;10591;52.532;13.348;2023-05-10T11:07:19;20.26;42.53
20862;DHT22;10591;52.532;13.348;2023-05-10T11:09:50;20.70;42.18
20862;DHT22;10591;52.532;13.348;2023-05-10T11:12:21;20.89;41.67
20862;DHT22;10591;52.532;13.348;2023-05-10T11:14:56;20.74;41.72
20862;DHT22;10591;52.532;13.348;2023-05-10T11:17:29;20.42;42.31
20862;DHT22;10591;52.532;13.348;2023-05-10T11:20:13;20.66;41.71
20862;DHT22;10591;52.532;13.348;2023-05-10T11:22:51;20.65;41.77
20862;DHT22;10591;52.532;13.348;2023-05-10T11:25:26;20.82;41.46
20862;DHT22;10591;52.532;13.348;2023-05-10T11:27:58;20.75;41.02
20862;DHT22;10591;52.532;13.348;2023-05-10T11:30:31;20.70;41.15
20862;DHT22;10591;52.532;13.348;2023-05-10T11:33:02;20.59;42.03
20862;DHT22;10591;52.532;13.348;2023-05-10T11:35:37;20.60;42.03
20862;DHT22;10591;52.532;13.348;2023-05-10T11:38:12;20.62;41.84
20862;DHT22;10591;52.532;13.348;2023-05-10T11:40:43;20.52;41.53
20862;DHT22;10591;52.532;13.348;2023-05-10T11:43:14;20.35;41.24
20862;DHT22;10591;52.532;13.348;2023-05-10T11:45:45;20.51;41.53
20862;DHT22;10591;52.532;13.348;2023-05-10T11:48:16;20.73;41.32
20862;DHT22;10591;52.532;13.348;2023-05-10T11:50:49;20.53;41.76
20862;DHT22;10591;52.532;13.348;2023-05-10T11:53:20;20.74;41.45
20862;DHT22;10591;52.532;13.348;2023-05-10T11:55:52;20.78;41.32
20862;DHT22;10591;52.532;13.348;2023-05-10T11:58:24;20.93;40.27
20862;DHT22;10591;52.532;13.348;2023-05-10T12:00:56;21.22;40.23
20862;DHT22;10591;52.532;13.348;2023-05-10T12:03:30;21.57;40.01
20862;DHT22;10591;52.532;13.348;2023-05-10T12:06:02;21.60;39.34
20862;DHT22;10591;52.532;13.348;2023-05-10T12:08:33;21.45;39.59
20862;DHT22;10591;52.532;13.348;2023-05-10T12:11:06;21.45;39.32
20862;DHT22;10591;52.532;13.348;2023-05-10T12:13:39;21.46;39.43
20862;DHT22;10591;52.532;13.348;2023-05-10T12:16:20;21.46;39.52
20862;DHT22;10591;52.532;13.348;2023-05-10T12:18:55;21.56;39.23
20862;DHT22;10591;52.532;13.348;2023-05-10T12:21:27;21.43;39.32
20862;DHT22;10591;52.532;13.348;2023-05-10T12:24:04;21.59;38.97
20862;DHT22;10591;52.532;13.348;2023-05-10T12:26:35;21.88;38.49
20862;DHT22;10591;52.532;13.348;2023-05-10T12:29:15;22.02;38.60
20862;DHT22;10591;52.532;13.348;2023-05-10T12:34:34;22.00;38.43
20862;DHT22;10591;52.532;13.348;2023-05-10T12:37:05;21.94;38.29
20862;DHT22;10591;52.532;13.348;2023-05-10T12:39:41;21.86;38.42
20862;DHT22;10591;52.532;13.348;2023-05-10T12:42:12;21.60;39.00
20862;DHT22;10591;52.532;13.348;2023-05-10T12:44:48;21.92;38.49
20862;DHT22;10591;52.532;13.348;2023-05-10T12:47:15;21.46;39.32
20862;DHT22;10591;52.532;13.348;2023-05-10T12:49:46;21.67;39.35
20862;DHT22;10591;52.532;13.348;2023-05-10T12:52:16;21.88;39.44
20862;DHT22;10591;52.532;13.348;2023-05-10T12:54:47;21.77;39.15
20862;DHT22;10591;52.532;13.348;2023-05-10T12:57:20;21.77;39.83
20862;DHT22;10591;52.532;13.348;2023-05-10T12:59:51;21.96;39.92
20862;DHT22;10591;52.532;13.348;2023-05-10T13:02:21;22.18;39.60
20862;DHT22;10591;52.532;13.348;2023-05-10T13:04:53;22.09;39.80
20862;DHT22;10591;52.532;13.348;2023-05-10T13:07:24;22.32;39.58
20862;DHT22;10591;52.532;13.348;2023-05-10T13:09:55;22.12;39.56
20862;DHT22;10591;52.532;13.348;2023-05-10T13:12:25;22.14;38.58
20862;DHT22;10591;52.532;13.348;2023-05-10T13:14:56;22.31;38.43
20862;DHT22;10591;52.532;13.348;2023-05-10T13:17:27;22.22;37.98
20862;DHT22;10591;52.532;13.348;2023-05-10T13:19:57;21.69;38.94
20862;DHT22;10591;52.532;13.348;2023-05-10T13:22:28;22.02;39.31
20862;DHT22;10591;52.532;13.348;2023-05-10T13:25:02;22.08;39.05
20862;DHT22;10591;52.532;13.348;2023-05-10T13:27:32;22.21;39.23
20862;DHT22;10591;52.532;13.348;2023-05-10T13:30:04;22.60;38.70
20862;DHT22;10591;52.532;13.348;2023-05-10T13:32:35;22.69;38.51
20862;DHT22;10591;52.532;13.348;2023-05-10T13:35:06;22.99;37.92
20862;DHT22;10591;52.532;13.348;2023-05-10T13:37:37;22.55;38.15
20862;DHT22;10591;52.532;13.348;2023-05-10T13:40:10;22.64;38.16
20862;DHT22;10591;52.532;13.348;2023-05-10T13:42:42;22.78;37.97
20862;DHT22;10591;52.532;13.348;2023-05-10T13:45:12;22.63;37.62
20862;DHT22;10591;52.532;13.348;2023-05-10T13:47:43;23.05;36.63
20862;DHT22;10591;52.532;13.348;2023-05-10T13:50:17;23.14;36.09
20862;DHT22;10591;52.532;13.348;2023-05-10T13:52:48;22.91;36.00
20862;DHT22;10591;52.532;13.348;2023-05-10T13:55:19;23.08;35.88
20862;DHT22;10591;52.532;13.348;2023-05-10T13:57:50;22.78;36.61
20862;DHT22;10591;52.532;13.348;2023-05-10T14:00:20;23.09;36.77
20862;DHT22;10591;52.532;13.348;2023-05-10T14:02:51;22.57;37.33
20862;DHT22;10591;52.532;13.348;2023-05-10T14:05:23;22.12;38.28
20862;DHT22;10591;52.532;13.348;2023-05-10T14:07:56;22.28;38.05
20862;DHT22;10591;52.532;13.348;2023-05-10T14:10:27;22.51;36.37
20862;DHT22;10591;52.532;13.348;2023-05-10T14:12:59;22.61;35.49
20862;DHT22;10591;52.532;13.348;2023-05-10T14:15:30;22.68;34.74
20862;DHT22;10591;52.532;13.348;2023-05-10T14:18:01;22.12;35.72
20862;DHT22;10591;52.532;13.348;2023-05-10T14:20:32;21.84;36.99
20862;DHT22;10591;52.532;13.348;2023-05-10T14:23:03;21.68;37.59
20862;DHT22;10591;52.532;13.348;2023-05-10T14:25:34;21.82;37.29
20862;DHT22;10591;52.532;13.348;2023-05-10T14:28:04;22.09;37.29
20862;DHT22;10591;52.532;13.348;2023-05-10T14:30:35;22.26;36.55
20862;DHT22;10591;52.532;13.348;2023-05-10T14:33:06;22.56;35.55
20862;DHT22;10591;52.532;13.348;2023-05-10T14:35:37;22.61;34.73
20862;DHT22;10591;52.532;13.348;2023-05-10T14:38:08;22.62;34.42
20862;DHT22;10591;52.532;13.348;2023-05-10T14:40:40;22.86;34.55
20862;DHT22;10591;52.532;13.348;2023-05-10T14:43:11;22.82;35.17
20862;DHT22;10591;52.532;13.348;2023-05-10T14:45:41;22.70;34.71
20862;DHT22;10591;52.532;13.348;2023-05-10T14:48:13;22.69;35.12
20862;DHT22;10591;52.532;13.348;2023-05-10T14:50:45;22.46;35.30
20862;DHT22;10591;52.532;13.348;2023-05-10T14:53:16;22.35;35.46
20862;DHT22;10591;52.532;13.348;2023-05-10T14:55:48;22.16;35.18
20862;DHT22;10591;52.532;13.348;2023-05-10T14:58:18;22.13;35.34
20862;DHT22;10591;52.532;13.348;2023-05-10T15:00:50;22.10;36.20
20862;DHT22;10591;52.532;13.348;2023-05-10T15:03:23;22.14;36.54
20862;DHT22;10591;52.532;13.348;2023-05-10T15:05:54;22.00;36.90
20862;DHT22;10591;52.532;13.348;2023-05-10T15:08:26;21.81;37.33
20862;DHT22;10591;52.532;13.348;2023-05-10T15:10:57;21.92;37.20
20862;DHT22;10591;52.532;13.348;2023-05-10T15:13:28;21.83;37.06
20862;DHT22;10591;52.532;13.348;2023-05-10T15:15:59;21.91;36.86
20862;DHT22;10591;52.532;13.348;2023-05-10T15:18:30;21.99;36.56
20862;DHT22;10591;52.532;13.348;2023-05-10T15:21:00;22.02;36.94
20862;DHT22;10591;52.532;13.348;2023-05-10T15:23:31;21.82;37.53
20862;DHT22;10591;52.532;13.348;2023-05-10T15:26:01;22.12;37.39
20862;DHT22;10591;52.532;13.348;2023-05-10T15:28:32;22.04;37.49
20862;DHT22;10591;52.532;13.348;2023-05-10T15:31:03;21.92;37.14
20862;DHT22;10591;52.532;13.348;2023-05-10T15:33:34;21.70;37.52
20862;DHT22;10591;52.532;13.348;2023-05-10T15:36:04;21.65;37.65
20862;DHT22;10591;52.532;13.348;2023-05-10T15:38:36;21.74;37.66
20862;DHT22;10591;52.532;13.348;2023-05-10T15:41:06;21.77;37.56
20862;DHT22;10591;52.532;13.348;2023-05-10T15:43:37;21.74;37.56
20862;DHT22;10591;52.532;13.348;2023-05-10T15:46:07;21.88;37.10
20862;DHT22;10591;52.532;13.348;2023-05-10T15:48:38;21.84;37.13
20862;DHT22;10591;52.532;13.348;2023-05-10T15:51:09;21.68;37.86
20862;DHT22;10591;52.532;13.348;2023-05-10T15:53:39;21.65;38.20
20862;DHT22;10591;52.532;13.348;2023-05-10T15:56:12;21.52;38.59
20862;DHT22;10591;52.532;13.348;2023-05-10T15:58:43;21.68;38.67
20862;DHT22;10591;52.532;13.348;2023-05-10T16:01:14;21.82;38.48
20862;DHT22;10591;52.532;13.348;2023-05-10T16:03:46;21.93;38.39
20862;DHT22;10591;52.532;13.348;2023-05-10T16:06:17;22.16;38.25
20862;DHT22;10591;52.532;13.348;2023-05-10T16:08:47;21.94;38.56